sensor_id;sensor_type;location;lat;lon;timestamp;P1;durP1;ratioP1;P2;durP2;ratioP2
12832;SDS011;6483;51.310;4.462;2022-10-16T00:01:22;2.08;;;1.50;;
12832;SDS011;6483;51.310;4.462;2022-10-16T00:03:49;6.03;;;2.00;;
12832;SDS011;6483;51.310;4.462;2022-10-16T00:06:19;2.03;;;1.20;;
12832;SDS011;6483;51.310;4.462;2022-10-16T00:08:49;1.38;;;1.27;;
12832;SDS011;6483;51.310;4.462;2022-10-16T00:11:37;2.60;;;1.20;;
12832;SDS011;6483;51.310;4.462;2022-10-16T00:14:08;3.25;;;1.40;;
12832;SDS011;6483;51.310;4.462;2022-10-16T00:16:42;4.28;;;1.90;;
12832;SDS011;6483;51.310;4.462;2022-10-16T00:19:09;2.03;;;1.38;;
12832;SDS011;6483;51.310;4.462;2022-10-16T00:21:36;2.40;;;1.38;;
12832;SDS011;6483;51.310;4.462;2022-10-16T00:24:06;4.13;;;1.65;;
12832;SDS011;6483;51.310;4.462;2022-10-16T00:26:33;2.65;;;1.40;;
12832;SDS011;6483;51.310;4.462;2022-10-16T00:29:00;4.72;;;1.35;;
12832;SDS011;6483;51.310;4.462;2022-10-16T00:31:27;1.92;;;1.20;;
12832;SDS011;6483;51.310;4.462;2022-10-16T00:33:53;1.13;;;1.00;;
12832;SDS011;6483;51.310;4.462;2022-10-16T00:36:20;2.42;;;1.23;;
12832;SDS011;6483;51.310;4.462;2022-10-16T00:38:51;2.53;;;1.13;;
12832;SDS011;6483;51.310;4.462;2022-10-16T00:41:21;3.80;;;1.27;;
12832;SDS011;6483;51.310;4.462;2022-10-16T00:43:52;3.28;;;1.02;;
12832;SDS011;6483;51.310;4.462;2022-10-16T00:46:35;2.53;;;1.00;;
12832;SDS011;6483;51.310;4.462;2022-10-16T00:49:09;3.10;;;1.02;;
12832;SDS011;6483;51.310;4.462;2022-10-16T00:51:44;2.65;;;1.38;;
12832;SDS011;6483;51.310;4.462;2022-10-16T00:54:13;1.70;;;1.02;;
12832;SDS011;6483;51.310;4.462;2022-10-16T00:56:42;2.50;;;1.45;;
12832;SDS011;6483;51.310;4.462;2022-10-16T00:59:29;1.30;;;1.13;;
12832;SDS011;6483;51.310;4.462;2022-10-16T01:02:21;4.85;;;1.20;;
12832;SDS011;6483;51.310;4.462;2022-10-16T01:04:48;3.63;;;1.33;;
12832;SDS011;6483;51.310;4.462;2022-10-16T01:13:04;5.25;;;1.45;;
12832;SDS011;6483;51.310;4.462;2022-10-16T01:18:54;3.20;;;1.00;;
12832;SDS011;6483;51.310;4.462;2022-10-16T01:21:23;1.20;;;1.10;;
12832;SDS011;6483;51.310;4.462;2022-10-16T01:26:56;1.98;;;0.90;;
12832;SDS011;6483;51.310;4.462;2022-10-16T01:29:26;1.10;;;1.00;;
12832;SDS011;6483;51.310;4.462;2022-10-16T01:32:16;1.25;;;1.02;;
12832;SDS011;6483;51.310;4.462;2022-10-16T01:35:52;2.13;;;1.00;;
12832;SDS011;6483;51.310;4.462;2022-10-16T01:37:50;1.33;;;1.10;;
12832;SDS011;6483;51.310;4.462;2022-10-16T01:40:23;2.08;;;1.38;;
12832;SDS011;6483;51.310;4.462;2022-10-16T01:42:56;2.83;;;0.82;;
12832;SDS011;6483;51.310;4.462;2022-10-16T01:45:27;2.13;;;1.05;;
12832;SDS011;6483;51.310;4.462;2022-10-16T01:47:56;2.15;;;1.20;;
12832;SDS011;6483;51.310;4.462;2022-10-16T01:50:31;1.85;;;0.80;;
12832;SDS011;6483;51.310;4.462;2022-10-16T01:53:00;0.70;;;0.70;;
12832;SDS011;6483;51.310;4.462;2022-10-16T01:55:29;2.15;;;1.05;;
12832;SDS011;6483;51.310;4.462;2022-10-16T01:57:59;1.67;;;0.90;;
12832;SDS011;6483;51.310;4.462;2022-10-16T02:00:28;2.05;;;1.25;;
12832;SDS011;6483;51.310;4.462;2022-10-16T02:02:54;2.25;;;1.10;;
12832;SDS011;6483;51.310;4.462;2022-10-16T02:05:27;2.28;;;0.88;;
12832;SDS011;6483;51.310;4.462;2022-10-16T02:08:07;2.05;;;0.85;;
12832;SDS011;6483;51.310;4.462;2022-10-16T02:10:36;2.00;;;1.10;;
12832;SDS011;6483;51.310;4.462;2022-10-16T02:13:06;1.45;;;1.00;;
12832;SDS011;6483;51.310;4.462;2022-10-16T02:15:42;2.42;;;1.30;;
12832;SDS011;6483;51.310;4.462;2022-10-16T02:18:07;0.90;;;0.90;;
12832;SDS011;6483;51.310;4.462;2022-10-16T02:20:41;1.63;;;1.05;;
12832;SDS011;6483;51.310;4.462;2022-10-16T02:23:19;3.72;;;1.23;;
12832;SDS011;6483;51.310;4.462;2022-10-16T02:26:03;2.22;;;1.13;;
12832;SDS011;6483;51.310;4.462;2022-10-16T02:28:39;2.47;;;1.48;;
12832;SDS011;6483;51.310;4.462;2022-10-16T02:31:15;3.95;;;1.17;;
12832;SDS011;6483;51.310;4.462;2022-10-16T02:33:48;1.35;;;1.20;;
12832;SDS011;6483;51.310;4.462;2022-10-16T02:36:23;1.80;;;1.00;;
12832;SDS011;6483;51.310;4.462;2022-10-16T02:38:50;1.42;;;1.00;;
12832;SDS011;6483;51.310;4.462;2022-10-16T02:41:17;1.77;;;1.25;;
12832;SDS011;6483;51.310;4.462;2022-10-16T02:43:45;1.35;;;1.25;;
12832;SDS011;6483;51.310;4.462;2022-10-16T02:46:12;3.35;;;1.38;;
12832;SDS011;6483;51.310;4.462;2022-10-16T02:48:38;2.78;;;1.10;;
12832;SDS011;6483;51.310;4.462;2022-10-16T02:51:05;1.27;;;1.17;;
12832;SDS011;6483;51.310;4.462;2022-10-16T02:53:31;2.13;;;1.50;;
12832;SDS011;6483;51.310;4.462;2022-10-16T02:55:57;1.98;;;1.33;;
12832;SDS011;6483;51.310;4.462;2022-10-16T02:58:25;2.20;;;1.30;;
12832;SDS011;6483;51.310;4.462;2022-10-16T03:00:51;4.10;;;1.25;;
12832;SDS011;6483;51.310;4.462;2022-10-16T03:03:16;3.47;;;1.70;;
12832;SDS011;6483;51.310;4.462;2022-10-16T03:05:42;3.78;;;1.10;;
12832;SDS011;6483;51.310;4.462;2022-10-16T03:08:11;2.22;;;1.00;;
12832;SDS011;6483;51.310;4.462;2022-10-16T03:10:39;2.92;;;1.45;;
12832;SDS011;6483;51.310;4.462;2022-10-16T03:13:05;3.55;;;1.17;;
12832;SDS011;6483;51.310;4.462;2022-10-16T03:15:33;1.75;;;1.05;;
12832;SDS011;6483;51.310;4.462;2022-10-16T03:18:02;1.85;;;1.30;;
12832;SDS011;6483;51.310;4.462;2022-10-16T03:20:27;1.85;;;1.13;;
12832;SDS011;6483;51.310;4.462;2022-10-16T03:22:56;3.72;;;1.50;;
12832;SDS011;6483;51.310;4.462;2022-10-16T03:25:22;1.77;;;1.27;;
12832;SDS011;6483;51.310;4.462;2022-10-16T03:27:48;2.47;;;1.13;;
12832;SDS011;6483;51.310;4.462;2022-10-16T03:30:14;4.53;;;1.30;;
12832;SDS011;6483;51.310;4.462;2022-10-16T03:32:44;4.10;;;1.48;;
12832;SDS011;6483;51.310;4.462;2022-10-16T03:35:11;2.47;;;1.60;;
12832;SDS011;6483;51.310;4.462;2022-10-16T03:37:39;2.75;;;1.40;;
12832;SDS011;6483;51.310;4.462;2022-10-16T03:40:04;8.25;;;1.20;;
12832;SDS011;6483;51.310;4.462;2022-10-16T03:42:30;2.70;;;1.15;;
12832;SDS011;6483;51.310;4.462;2022-10-16T03:44:59;3.83;;;1.30;;
12832;SDS011;6483;51.310;4.462;2022-10-16T03:47:25;2.40;;;1.30;;
12832;SDS011;6483;51.310;4.462;2022-10-16T03:49:51;2.70;;;1.30;;
12832;SDS011;6483;51.310;4.462;2022-10-16T03:52:16;4.50;;;1.48;;
12832;SDS011;6483;51.310;4.462;2022-10-16T03:54:43;2.65;;;1.60;;
12832;SDS011;6483;51.310;4.462;2022-10-16T03:57:08;1.73;;;1.27;;
12832;SDS011;6483;51.310;4.462;2022-10-16T03:59:34;4.80;;;1.45;;
12832;SDS011;6483;51.310;4.462;2022-10-16T04:02:00;2.63;;;1.10;;
12832;SDS011;6483;51.310;4.462;2022-10-16T04:04:34;3.30;;;1.30;;
12832;SDS011;6483;51.310;4.462;2022-10-16T04:07:00;3.20;;;1.35;;
12832;SDS011;6483;51.310;4.462;2022-10-16T04:09:26;4.85;;;1.70;;
12832;SDS011;6483;51.310;4.462;2022-10-16T04:11:55;2.03;;;1.52;;
12832;SDS011;6483;51.310;4.462;2022-10-16T04:14:21;3.38;;;1.70;;
12832;SDS011;6483;51.310;4.462;2022-10-16T04:16:47;7.00;;;1.90;;
12832;SDS011;6483;51.310;4.462;2022-10-16T04:19:15;5.68;;;2.00;;
12832;SDS011;6483;51.310;4.462;2022-10-16T04:21:41;2.97;;;1.35;;
12832;SDS011;6483;51.310;4.462;2022-10-16T04:24:07;2.42;;;1.35;;
12832;SDS011;6483;51.310;4.462;2022-10-16T04:26:36;4.05;;;1.45;;
12832;SDS011;6483;51.310;4.462;2022-10-16T04:29:02;2.65;;;1.63;;
12832;SDS011;6483;51.310;4.462;2022-10-16T04:31:27;3.33;;;1.52;;
12832;SDS011;6483;51.310;4.462;2022-10-16T04:33:53;5.05;;;1.50;;
12832;SDS011;6483;51.310;4.462;2022-10-16T04:36:18;7.13;;;1.83;;
12832;SDS011;6483;51.310;4.462;2022-10-16T04:38:44;3.90;;;1.50;;
12832;SDS011;6483;51.310;4.462;2022-10-16T04:41:10;3.95;;;1.60;;
12832;SDS011;6483;51.310;4.462;2022-10-16T04:43:35;3.70;;;1.75;;
12832;SDS011;6483;51.310;4.462;2022-10-16T04:46:01;5.05;;;1.80;;
12832;SDS011;6483;51.310;4.462;2022-10-16T04:48:35;4.70;;;1.77;;
12832;SDS011;6483;51.310;4.462;2022-10-16T04:51:04;4.13;;;1.80;;
12832;SDS011;6483;51.310;4.462;2022-10-16T04:53:32;1.73;;;1.23;;
12832;SDS011;6483;51.310;4.462;2022-10-16T04:55:58;4.10;;;1.70;;
12832;SDS011;6483;51.310;4.462;2022-10-16T04:58:24;4.13;;;1.35;;
12832;SDS011;6483;51.310;4.462;2022-10-16T05:00:52;3.70;;;1.67;;
12832;SDS011;6483;51.310;4.462;2022-10-16T05:03:21;3.75;;;1.95;;
12832;SDS011;6483;51.310;4.462;2022-10-16T05:05:46;6.03;;;1.60;;
12832;SDS011;6483;51.310;4.462;2022-10-16T05:08:15;3.92;;;1.52;;
12832;SDS011;6483;51.310;4.462;2022-10-16T05:10:41;4.95;;;1.48;;
12832;SDS011;6483;51.310;4.462;2022-10-16T05:13:08;6.60;;;1.83;;
12832;SDS011;6483;51.310;4.462;2022-10-16T05:15:34;2.53;;;1.60;;
12832;SDS011;6483;51.310;4.462;2022-10-16T05:18:00;1.60;;;1.40;;
12832;SDS011;6483;51.310;4.462;2022-10-16T05:20:26;3.45;;;1.65;;
12832;SDS011;6483;51.310;4.462;2022-10-16T05:22:54;2.92;;;1.75;;
12832;SDS011;6483;51.310;4.462;2022-10-16T05:25:20;3.80;;;1.50;;
12832;SDS011;6483;51.310;4.462;2022-10-16T05:27:49;3.00;;;1.48;;
12832;SDS011;6483;51.310;4.462;2022-10-16T05:30:15;4.90;;;1.63;;
12832;SDS011;6483;51.310;4.462;2022-10-16T05:32:45;4.80;;;1.63;;
12832;SDS011;6483;51.310;4.462;2022-10-16T05:35:12;5.85;;;1.75;;
12832;SDS011;6483;51.310;4.462;2022-10-16T05:37:42;4.65;;;1.67;;
12832;SDS011;6483;51.310;4.462;2022-10-16T05:40:08;4.13;;;2.00;;
12832;SDS011;6483;51.310;4.462;2022-10-16T05:42:37;6.18;;;1.67;;
12832;SDS011;6483;51.310;4.462;2022-10-16T05:45:05;4.93;;;1.95;;
12832;SDS011;6483;51.310;4.462;2022-10-16T05:47:34;2.58;;;1.70;;
12832;SDS011;6483;51.310;4.462;2022-10-16T05:49:59;4.72;;;1.83;;
12832;SDS011;6483;51.310;4.462;2022-10-16T05:52:26;9.73;;;2.50;;
12832;SDS011;6483;51.310;4.462;2022-10-16T05:54:52;3.63;;;1.70;;
12832;SDS011;6483;51.310;4.462;2022-10-16T05:57:17;3.50;;;2.15;;
12832;SDS011;6483;51.310;4.462;2022-10-16T05:59:43;4.03;;;2.03;;
12832;SDS011;6483;51.310;4.462;2022-10-16T06:02:11;4.47;;;2.00;;
12832;SDS011;6483;51.310;4.462;2022-10-16T06:04:38;6.05;;;1.77;;
12832;SDS011;6483;51.310;4.462;2022-10-16T06:07:04;3.22;;;2.08;;
12832;SDS011;6483;51.310;4.462;2022-10-16T06:09:30;5.60;;;1.90;;
12832;SDS011;6483;51.310;4.462;2022-10-16T06:11:55;3.92;;;2.20;;
12832;SDS011;6483;51.310;4.462;2022-10-16T06:14:24;3.47;;;2.00;;
12832;SDS011;6483;51.310;4.462;2022-10-16T06:16:49;5.88;;;2.13;;
12832;SDS011;6483;51.310;4.462;2022-10-16T06:19:18;5.72;;;1.90;;
12832;SDS011;6483;51.310;4.462;2022-10-16T06:21:44;3.08;;;1.90;;
12832;SDS011;6483;51.310;4.462;2022-10-16T06:24:09;2.10;;;1.88;;
12832;SDS011;6483;51.310;4.462;2022-10-16T06:26:41;3.10;;;1.90;;
12832;SDS011;6483;51.310;4.462;2022-10-16T06:29:06;4.60;;;1.85;;
12832;SDS011;6483;51.310;4.462;2022-10-16T06:31:33;4.75;;;1.90;;
12832;SDS011;6483;51.310;4.462;2022-10-16T06:33:59;4.72;;;1.90;;
12832;SDS011;6483;51.310;4.462;2022-10-16T06:36:25;5.15;;;2.20;;
12832;SDS011;6483;51.310;4.462;2022-10-16T06:38:51;3.25;;;1.65;;
12832;SDS011;6483;51.310;4.462;2022-10-16T06:41:18;5.03;;;2.00;;
12832;SDS011;6483;51.310;4.462;2022-10-16T06:43:49;5.63;;;1.98;;
12832;SDS011;6483;51.310;4.462;2022-10-16T06:46:16;5.90;;;2.10;;
12832;SDS011;6483;51.310;4.462;2022-10-16T06:48:44;4.43;;;2.00;;
12832;SDS011;6483;51.310;4.462;2022-10-16T06:51:11;6.22;;;2.38;;
12832;SDS011;6483;51.310;4.462;2022-10-16T06:53:45;5.63;;;1.95;;
12832;SDS011;6483;51.310;4.462;2022-10-16T06:56:32;3.50;;;1.95;;
12832;SDS011;6483;51.310;4.462;2022-10-16T06:58:58;4.28;;;2.25;;
12832;SDS011;6483;51.310;4.462;2022-10-16T07:01:25;5.00;;;2.17;;
12832;SDS011;6483;51.310;4.462;2022-10-16T07:03:52;6.10;;;2.00;;
12832;SDS011;6483;51.310;4.462;2022-10-16T07:06:21;6.22;;;2.05;;
12832;SDS011;6483;51.310;4.462;2022-10-16T07:08:48;4.78;;;2.00;;
12832;SDS011;6483;51.310;4.462;2022-10-16T07:11:15;2.92;;;1.80;;
12832;SDS011;6483;51.310;4.462;2022-10-16T07:13:42;4.90;;;2.20;;
12832;SDS011;6483;51.310;4.462;2022-10-16T07:18:36;3.83;;;2.10;;
12832;SDS011;6483;51.310;4.462;2022-10-16T07:21:26;7.75;;;2.30;;
12832;SDS011;6483;51.310;4.462;2022-10-16T07:23:54;6.35;;;2.28;;
12832;SDS011;6483;51.310;4.462;2022-10-16T07:26:22;3.53;;;2.28;;
12832;SDS011;6483;51.310;4.462;2022-10-16T07:28:49;2.90;;;2.05;;
12832;SDS011;6483;51.310;4.462;2022-10-16T07:31:15;3.85;;;1.95;;
12832;SDS011;6483;51.310;4.462;2022-10-16T07:33:42;3.25;;;1.67;;
12832;SDS011;6483;51.310;4.462;2022-10-16T07:36:09;7.00;;;1.90;;
12832;SDS011;6483;51.310;4.462;2022-10-16T07:38:38;5.47;;;2.10;;
12832;SDS011;6483;51.310;4.462;2022-10-16T07:41:05;6.20;;;1.95;;
12832;SDS011;6483;51.310;4.462;2022-10-16T07:43:32;6.38;;;1.50;;
12832;SDS011;6483;51.310;4.462;2022-10-16T07:46:01;5.43;;;1.77;;
12832;SDS011;6483;51.310;4.462;2022-10-16T07:48:28;5.32;;;2.33;;
12832;SDS011;6483;51.310;4.462;2022-10-16T07:51:03;6.40;;;1.60;;
12832;SDS011;6483;51.310;4.462;2022-10-16T07:53:30;5.28;;;1.98;;
12832;SDS011;6483;51.310;4.462;2022-10-16T07:55:57;2.80;;;1.80;;
12832;SDS011;6483;51.310;4.462;2022-10-16T07:58:24;3.13;;;1.60;;
12832;SDS011;6483;51.310;4.462;2022-10-16T08:00:50;7.43;;;2.00;;
12832;SDS011;6483;51.310;4.462;2022-10-16T08:03:15;6.20;;;1.65;;
12832;SDS011;6483;51.310;4.462;2022-10-16T08:05:41;5.47;;;1.50;;
12832;SDS011;6483;51.310;4.462;2022-10-16T08:08:10;3.70;;;2.00;;
12832;SDS011;6483;51.310;4.462;2022-10-16T08:10:40;4.55;;;1.50;;
12832;SDS011;6483;51.310;4.462;2022-10-16T08:13:15;3.33;;;1.67;;
12832;SDS011;6483;51.310;4.462;2022-10-16T08:15:41;7.72;;;1.75;;
12832;SDS011;6483;51.310;4.462;2022-10-16T08:18:11;6.93;;;1.92;;
12832;SDS011;6483;51.310;4.462;2022-10-16T08:20:38;2.95;;;1.50;;
12832;SDS011;6483;51.310;4.462;2022-10-16T08:23:05;7.70;;;1.50;;
12832;SDS011;6483;51.310;4.462;2022-10-16T08:25:33;3.65;;;1.75;;
12832;SDS011;6483;51.310;4.462;2022-10-16T08:28:03;6.57;;;1.50;;
12832;SDS011;6483;51.310;4.462;2022-10-16T08:30:30;4.32;;;1.58;;
12832;SDS011;6483;51.310;4.462;2022-10-16T08:32:56;5.18;;;1.45;;
12832;SDS011;6483;51.310;4.462;2022-10-16T08:35:25;5.15;;;1.50;;
12832;SDS011;6483;51.310;4.462;2022-10-16T08:37:54;5.45;;;1.55;;
12832;SDS011;6483;51.310;4.462;2022-10-16T08:40:24;6.00;;;1.60;;
12832;SDS011;6483;51.310;4.462;2022-10-16T08:50:54;7.50;;;1.42;;
12832;SDS011;6483;51.310;4.462;2022-10-16T08:53:29;5.72;;;1.55;;
12832;SDS011;6483;51.310;4.462;2022-10-16T08:56:00;4.30;;;2.10;;
12832;SDS011;6483;51.310;4.462;2022-10-16T08:58:26;5.80;;;1.80;;
12832;SDS011;6483;51.310;4.462;2022-10-16T09:00:56;3.85;;;1.70;;
12832;SDS011;6483;51.310;4.462;2022-10-16T09:03:43;4.78;;;1.30;;
12832;SDS011;6483;51.310;4.462;2022-10-16T09:09:18;4.75;;;1.65;;
12832;SDS011;6483;51.310;4.462;2022-10-16T09:17:40;3.92;;;1.45;;
12832;SDS011;6483;51.310;4.462;2022-10-16T09:20:20;4.07;;;1.20;;
12832;SDS011;6483;51.310;4.462;2022-10-16T09:23:10;5.47;;;1.73;;
12832;SDS011;6483;51.310;4.462;2022-10-16T09:25:46;6.82;;;1.40;;
12832;SDS011;6483;51.310;4.462;2022-10-16T09:28:14;4.35;;;1.77;;
12832;SDS011;6483;51.310;4.462;2022-10-16T09:30:43;4.78;;;1.52;;
12832;SDS011;6483;51.310;4.462;2022-10-16T09:33:14;8.52;;;1.55;;
12832;SDS011;6483;51.310;4.462;2022-10-16T09:35:43;5.93;;;1.83;;
12832;SDS011;6483;51.310;4.462;2022-10-16T09:40:58;9.93;;;1.50;;
12832;SDS011;6483;51.310;4.462;2022-10-16T09:46:24;6.63;;;1.85;;
12832;SDS011;6483;51.310;4.462;2022-10-16T09:49:20;3.60;;;1.30;;
12832;SDS011;6483;51.310;4.462;2022-10-16T09:51:48;6.43;;;1.58;;
12832;SDS011;6483;51.310;4.462;2022-10-16T09:54:15;5.55;;;1.50;;
12832;SDS011;6483;51.310;4.462;2022-10-16T09:56:44;4.60;;;1.30;;
12832;SDS011;6483;51.310;4.462;2022-10-16T09:59:12;1.77;;;1.23;;
12832;SDS011;6483;51.310;4.462;2022-10-16T10:01:40;4.43;;;1.60;;
12832;SDS011;6483;51.310;4.462;2022-10-16T10:04:11;10.45;;;2.10;;
12832;SDS011;6483;51.310;4.462;2022-10-16T10:06:40;9.65;;;1.98;;
12832;SDS011;6483;51.310;4.462;2022-10-16T10:12:16;5.22;;;1.80;;
12832;SDS011;6483;51.310;4.462;2022-10-16T10:14:51;5.78;;;1.50;;
12832;SDS011;6483;51.310;4.462;2022-10-16T10:17:25;8.82;;;1.63;;
12832;SDS011;6483;51.310;4.462;2022-10-16T10:19:57;5.20;;;1.73;;
12832;SDS011;6483;51.310;4.462;2022-10-16T10:22:39;3.90;;;1.25;;
12832;SDS011;6483;51.310;4.462;2022-10-16T10:30:24;9.68;;;1.80;;
12832;SDS011;6483;51.310;4.462;2022-10-16T10:49:39;10.32;;;1.85;;
12832;SDS011;6483;51.310;4.462;2022-10-16T10:52:22;7.57;;;1.77;;
12832;SDS011;6483;51.310;4.462;2022-10-16T10:57:47;7.78;;;1.85;;
12832;SDS011;6483;51.310;4.462;2022-10-16T11:06:11;6.88;;;1.83;;
12832;SDS011;6483;51.310;4.462;2022-10-16T11:08:43;6.05;;;1.58;;
12832;SDS011;6483;51.310;4.462;2022-10-16T11:12:04;5.55;;;1.63;;
12832;SDS011;6483;51.310;4.462;2022-10-16T11:14:38;9.13;;;1.63;;
12832;SDS011;6483;51.310;4.462;2022-10-16T11:17:52;5.03;;;1.70;;
12832;SDS011;6483;51.310;4.462;2022-10-16T11:20:18;6.60;;;1.85;;
12832;SDS011;6483;51.310;4.462;2022-10-16T11:22:48;6.70;;;1.65;;
12832;SDS011;6483;51.310;4.462;2022-10-16T11:25:48;8.80;;;1.60;;
12832;SDS011;6483;51.310;4.462;2022-10-16T11:28:15;9.48;;;1.30;;
12832;SDS011;6483;51.310;4.462;2022-10-16T11:34:22;6.25;;;1.40;;
12832;SDS011;6483;51.310;4.462;2022-10-16T11:37:10;11.90;;;2.20;;
12832;SDS011;6483;51.310;4.462;2022-10-16T11:39:42;8.95;;;2.00;;
12832;SDS011;6483;51.310;4.462;2022-10-16T11:42:22;10.40;;;1.77;;
12832;SDS011;6483;51.310;4.462;2022-10-16T11:47:48;8.55;;;1.15;;
12832;SDS011;6483;51.310;4.462;2022-10-16T11:53:13;4.82;;;1.58;;
12832;SDS011;6483;51.310;4.462;2022-10-16T11:56:04;8.38;;;1.42;;
12832;SDS011;6483;51.310;4.462;2022-10-16T11:59:16;8.15;;;1.40;;
12832;SDS011;6483;51.310;4.462;2022-10-16T12:01:39;6.72;;;1.77;;
12832;SDS011;6483;51.310;4.462;2022-10-16T12:07:21;3.80;;;1.15;;
12832;SDS011;6483;51.310;4.462;2022-10-16T12:09:52;4.90;;;1.50;;
12832;SDS011;6483;51.310;4.462;2022-10-16T12:12:37;2.83;;;1.20;;
12832;SDS011;6483;51.310;4.462;2022-10-16T12:17:50;6.53;;;1.95;;
12832;SDS011;6483;51.310;4.462;2022-10-16T12:23:03;4.28;;;1.13;;
12832;SDS011;6483;51.310;4.462;2022-10-16T12:28:02;5.68;;;1.63;;
12832;SDS011;6483;51.310;4.462;2022-10-16T12:30:30;7.50;;;1.70;;
12832;SDS011;6483;51.310;4.462;2022-10-16T12:33:51;3.95;;;1.65;;
12832;SDS011;6483;51.310;4.462;2022-10-16T12:35:48;3.42;;;1.10;;
12832;SDS011;6483;51.310;4.462;2022-10-16T12:38:19;6.38;;;1.65;;
12832;SDS011;6483;51.310;4.462;2022-10-16T12:43:27;5.95;;;1.50;;
12832;SDS011;6483;51.310;4.462;2022-10-16T12:46:05;5.55;;;1.30;;
12832;SDS011;6483;51.310;4.462;2022-10-16T12:48:34;7.57;;;1.30;;
12832;SDS011;6483;51.310;4.462;2022-10-16T12:54:00;8.13;;;1.35;;
12832;SDS011;6483;51.310;4.462;2022-10-16T12:59:38;4.65;;;1.25;;
12832;SDS011;6483;51.310;4.462;2022-10-16T13:19:08;3.95;;;1.45;;
12832;SDS011;6483;51.310;4.462;2022-10-16T13:30:37;4.18;;;1.25;;
12832;SDS011;6483;51.310;4.462;2022-10-16T13:33:20;5.32;;;1.45;;
12832;SDS011;6483;51.310;4.462;2022-10-16T13:39:15;3.50;;;1.17;;
12832;SDS011;6483;51.310;4.462;2022-10-16T13:41:46;5.18;;;2.85;;
12832;SDS011;6483;51.310;4.462;2022-10-16T13:44:23;4.28;;;1.17;;
12832;SDS011;6483;51.310;4.462;2022-10-16T13:47:20;6.97;;;4.32;;
12832;SDS011;6483;51.310;4.462;2022-10-16T13:50:43;7.35;;;3.00;;
12832;SDS011;6483;51.310;4.462;2022-10-16T13:52:50;10.18;;;6.13;;
12832;SDS011;6483;51.310;4.462;2022-10-16T13:55:17;8.35;;;5.15;;
12832;SDS011;6483;51.310;4.462;2022-10-16T13:57:44;5.43;;;1.30;;
12832;SDS011;6483;51.310;4.462;2022-10-16T14:00:20;5.28;;;1.63;;
12832;SDS011;6483;51.310;4.462;2022-10-16T14:02:52;3.83;;;1.70;;
12832;SDS011;6483;51.310;4.462;2022-10-16T14:05:22;7.00;;;3.97;;
12832;SDS011;6483;51.310;4.462;2022-10-16T14:07:49;5.65;;;3.17;;
12832;SDS011;6483;51.310;4.462;2022-10-16T14:10:26;3.17;;;1.83;;
12832;SDS011;6483;51.310;4.462;2022-10-16T14:12:58;6.03;;;1.88;;
12832;SDS011;6483;51.310;4.462;2022-10-16T14:15:48;2.50;;;1.50;;
12832;SDS011;6483;51.310;4.462;2022-10-16T14:18:18;2.17;;;1.20;;
12832;SDS011;6483;51.310;4.462;2022-10-16T14:20:48;4.32;;;1.40;;
12832;SDS011;6483;51.310;4.462;2022-10-16T14:25:53;2.55;;;1.60;;
12832;SDS011;6483;51.310;4.462;2022-10-16T14:28:30;4.30;;;1.38;;
12832;SDS011;6483;51.310;4.462;2022-10-16T14:30:59;2.63;;;1.35;;
12832;SDS011;6483;51.310;4.462;2022-10-16T14:36:11;2.10;;;1.15;;
12832;SDS011;6483;51.310;4.462;2022-10-16T14:38:39;3.08;;;1.30;;
12832;SDS011;6483;51.310;4.462;2022-10-16T14:41:07;6.78;;;2.95;;
12832;SDS011;6483;51.310;4.462;2022-10-16T14:43:34;5.22;;;2.33;;
12832;SDS011;6483;51.310;4.462;2022-10-16T14:46:13;2.63;;;1.55;;
12832;SDS011;6483;51.310;4.462;2022-10-16T14:48:48;4.03;;;1.73;;
12832;SDS011;6483;51.310;4.462;2022-10-16T14:51:19;4.93;;;1.65;;
12832;SDS011;6483;51.310;4.462;2022-10-16T14:54:14;4.30;;;1.92;;
12832;SDS011;6483;51.310;4.462;2022-10-16T14:56:46;6.70;;;2.08;;
12832;SDS011;6483;51.310;4.462;2022-10-16T14:59:25;3.65;;;1.30;;
12832;SDS011;6483;51.310;4.462;2022-10-16T15:01:55;3.72;;;1.83;;
12832;SDS011;6483;51.310;4.462;2022-10-16T15:04:21;3.10;;;1.52;;
12832;SDS011;6483;51.310;4.462;2022-10-16T15:06:47;7.47;;;5.70;;
12832;SDS011;6483;51.310;4.462;2022-10-16T15:09:13;3.13;;;1.95;;
12832;SDS011;6483;51.310;4.462;2022-10-16T15:11:39;4.35;;;2.25;;
12832;SDS011;6483;51.310;4.462;2022-10-16T15:14:08;6.38;;;2.45;;
12832;SDS011;6483;51.310;4.462;2022-10-16T15:16:54;3.63;;;1.20;;
12832;SDS011;6483;51.310;4.462;2022-10-16T15:19:23;3.42;;;1.30;;
12832;SDS011;6483;51.310;4.462;2022-10-16T15:21:48;4.63;;;1.60;;
12832;SDS011;6483;51.310;4.462;2022-10-16T15:24:14;5.28;;;2.38;;
12832;SDS011;6483;51.310;4.462;2022-10-16T15:26:41;9.27;;;4.07;;
12832;SDS011;6483;51.310;4.462;2022-10-16T15:29:07;11.90;;;5.40;;
12832;SDS011;6483;51.310;4.462;2022-10-16T15:31:36;6.35;;;3.03;;
12832;SDS011;6483;51.310;4.462;2022-10-16T15:34:02;4.35;;;1.77;;
12832;SDS011;6483;51.310;4.462;2022-10-16T15:36:31;6.82;;;3.15;;
12832;SDS011;6483;51.310;4.462;2022-10-16T15:38:59;4.30;;;2.03;;
12832;SDS011;6483;51.310;4.462;2022-10-16T15:41:28;6.57;;;3.20;;
12832;SDS011;6483;51.310;4.462;2022-10-16T15:43:53;6.90;;;3.03;;
12832;SDS011;6483;51.310;4.462;2022-10-16T15:46:20;4.97;;;1.95;;
12832;SDS011;6483;51.310;4.462;2022-10-16T15:48:50;5.38;;;2.33;;
12832;SDS011;6483;51.310;4.462;2022-10-16T15:51:20;3.47;;;2.40;;
12832;SDS011;6483;51.310;4.462;2022-10-16T15:53:45;6.57;;;2.47;;
12832;SDS011;6483;51.310;4.462;2022-10-16T15:56:11;6.43;;;3.75;;
12832;SDS011;6483;51.310;4.462;2022-10-16T15:58:38;15.68;;;7.57;;
12832;SDS011;6483;51.310;4.462;2022-10-16T16:01:05;12.82;;;8.30;;
12832;SDS011;6483;51.310;4.462;2022-10-16T16:03:31;13.68;;;7.28;;
12832;SDS011;6483;51.310;4.462;2022-10-16T16:05:57;14.98;;;8.93;;
12832;SDS011;6483;51.310;4.462;2022-10-16T16:08:32;20.05;;;14.00;;
12832;SDS011;6483;51.310;4.462;2022-10-16T16:10:59;46.55;;;29.10;;
12832;SDS011;6483;51.310;4.462;2022-10-16T16:13:45;41.47;;;26.25;;
12832;SDS011;6483;51.310;4.462;2022-10-16T16:16:15;25.00;;;15.73;;
12832;SDS011;6483;51.310;4.462;2022-10-16T16:18:42;16.35;;;11.50;;
12832;SDS011;6483;51.310;4.462;2022-10-16T16:21:09;10.15;;;7.30;;
12832;SDS011;6483;51.310;4.462;2022-10-16T16:23:36;9.38;;;6.00;;
12832;SDS011;6483;51.310;4.462;2022-10-16T16:28:51;6.85;;;4.40;;
12832;SDS011;6483;51.310;4.462;2022-10-16T16:31:24;7.72;;;3.58;;
12832;SDS011;6483;51.310;4.462;2022-10-16T16:33:51;4.85;;;2.60;;
12832;SDS011;6483;51.310;4.462;2022-10-16T16:36:17;5.80;;;2.40;;
12832;SDS011;6483;51.310;4.462;2022-10-16T16:38:43;5.15;;;2.22;;
12832;SDS011;6483;51.310;4.462;2022-10-16T16:41:10;3.65;;;2.15;;
12832;SDS011;6483;51.310;4.462;2022-10-16T16:43:40;7.15;;;2.55;;
12832;SDS011;6483;51.310;4.462;2022-10-16T16:46:07;3.80;;;1.95;;
12832;SDS011;6483;51.310;4.462;2022-10-16T16:48:33;4.18;;;2.20;;
12832;SDS011;6483;51.310;4.462;2022-10-16T16:53:55;3.85;;;2.70;;
12832;SDS011;6483;51.310;4.462;2022-10-16T16:56:22;9.35;;;5.88;;
12832;SDS011;6483;51.310;4.462;2022-10-16T16:58:49;9.27;;;6.30;;
12832;SDS011;6483;51.310;4.462;2022-10-16T17:01:16;10.63;;;5.20;;
12832;SDS011;6483;51.310;4.462;2022-10-16T17:03:42;9.63;;;5.05;;
12832;SDS011;6483;51.310;4.462;2022-10-16T17:06:10;8.52;;;3.60;;
12832;SDS011;6483;51.310;4.462;2022-10-16T17:08:41;10.57;;;4.88;;
12832;SDS011;6483;51.310;4.462;2022-10-16T17:11:11;7.80;;;4.47;;
12832;SDS011;6483;51.310;4.462;2022-10-16T17:13:38;6.15;;;3.78;;
12832;SDS011;6483;51.310;4.462;2022-10-16T17:16:04;5.68;;;4.35;;
12832;SDS011;6483;51.310;4.462;2022-10-16T17:18:31;6.22;;;4.72;;
12832;SDS011;6483;51.310;4.462;2022-10-16T17:21:03;8.20;;;5.63;;
12832;SDS011;6483;51.310;4.462;2022-10-16T17:23:31;9.27;;;5.70;;
12832;SDS011;6483;51.310;4.462;2022-10-16T17:26:02;7.30;;;3.35;;
12832;SDS011;6483;51.310;4.462;2022-10-16T17:28:30;4.43;;;2.70;;
12832;SDS011;6483;51.310;4.462;2022-10-16T17:30:55;8.88;;;4.53;;
12832;SDS011;6483;51.310;4.462;2022-10-16T17:33:21;6.82;;;4.63;;
12832;SDS011;6483;51.310;4.462;2022-10-16T17:35:46;7.43;;;5.45;;
12832;SDS011;6483;51.310;4.462;2022-10-16T17:38:13;8.05;;;6.13;;
12832;SDS011;6483;51.310;4.462;2022-10-16T17:40:40;10.02;;;4.68;;